sensor_id;sensor_type;location;lat;lon;timestamp;temperature;humidity
52731;DHT22;38624;53.242;6.974;2022-09-09T00:04:35;14.30;99.90
52731;DHT22;38624;53.242;6.974;2022-09-09T00:07:15;14.20;99.90
52731;DHT22;38624;53.242;6.974;2022-09-09T00:09:50;14.20;99.90
52731;DHT22;38624;53.242;6.974;2022-09-09T00:12:34;14.20;99.90
52731;DHT22;38624;53.242;6.974;2022-09-09T00:18:40;14.10;99.90
52731;DHT22;38624;53.242;6.974;2022-09-09T00:21:15;14.10;99.90
52731;DHT22;38624;53.242;6.974;2022-09-09T00:31:37;14.00;99.90
52731;DHT22;38624;53.242;6.974;2022-09-09T00:34:18;13.90;99.90
52731;DHT22;38624;53.242;6.974;2022-09-09T00:36:49;13.90;99.90
52731;DHT22;38624;53.242;6.974;2022-09-09T00:45:01;13.90;99.90
52731;DHT22;38624;53.242;6.974;2022-09-09T00:47:40;13.80;99.90
52731;DHT22;38624;53.242;6.974;2022-09-09T00:58:21;13.70;99.90
52731;DHT22;38624;53.242;6.974;2022-09-09T01:00:50;13.70;99.90
52731;DHT22;38624;53.242;6.974;2022-09-09T01:06:11;13.60;99.90
52731;DHT22;38624;53.242;6.974;2022-09-09T01:11:26;13.60;99.90
52731;DHT22;38624;53.242;6.974;2022-09-09T01:16:36;13.50;99.90
52731;DHT22;38624;53.242;6.974;2022-09-09T01:19:03;13.50;99.90
52731;DHT22;38624;53.242;6.974;2022-09-09T01:21:53;13.50;99.90
52731;DHT22;38624;53.242;6.974;2022-09-09T01:26:54;13.50;99.90
52731;DHT22;38624;53.242;6.974;2022-09-09T01:29:22;13.50;99.90
52731;DHT22;38624;53.242;6.974;2022-09-09T01:31:53;13.40;99.90
52731;DHT22;38624;53.242;6.974;2022-09-09T01:34:20;13.40;99.90
52731;DHT22;38624;53.242;6.974;2022-09-09T01:36:48;13.40;99.90
52731;DHT22;38624;53.242;6.974;2022-09-09T01:39:16;13.40;99.90
52731;DHT22;38624;53.242;6.974;2022-09-09T01:41:42;13.40;99.90
52731;DHT22;38624;53.242;6.974;2022-09-09T01:44:08;13.30;99.90
52731;DHT22;38624;53.242;6.974;2022-09-09T01:46:35;13.30;99.90
52731;DHT22;38624;53.242;6.974;2022-09-09T01:49:02;13.40;99.90
52731;DHT22;38624;53.242;6.974;2022-09-09T01:51:29;13.40;99.90
52731;DHT22;38624;53.242;6.974;2022-09-09T01:53:55;13.40;99.90
52731;DHT22;38624;53.242;6.974;2022-09-09T02:04:37;13.40;99.90
52731;DHT22;38624;53.242;6.974;2022-09-09T02:07:10;13.40;99.90
52731;DHT22;38624;53.242;6.974;2022-09-09T02:09:41;13.40;99.90
52731;DHT22;38624;53.242;6.974;2022-09-09T02:12:13;13.30;99.90
52731;DHT22;38624;53.242;6.974;2022-09-09T02:14:42;13.40;99.90
52731;DHT22;38624;53.242;6.974;2022-09-09T02:17:11;13.30;99.90
52731;DHT22;38624;53.242;6.974;2022-09-09T02:19:41;13.30;99.90
52731;DHT22;38624;53.242;6.974;2022-09-09T02:22:09;13.30;99.90
52731;DHT22;38624;53.242;6.974;2022-09-09T02:24:37;13.30;99.90
52731;DHT22;38624;53.242;6.974;2022-09-09T02:27:05;13.30;99.90
52731;DHT22;38624;53.242;6.974;2022-09-09T02:29:36;13.30;99.90
52731;DHT22;38624;53.242;6.974;2022-09-09T02:32:06;13.40;99.90
52731;DHT22;38624;53.242;6.974;2022-09-09T02:34:36;13.30;99.90
52731;DHT22;38624;53.242;6.974;2022-09-09T02:37:04;13.30;99.90
52731;DHT22;38624;53.242;6.974;2022-09-09T02:39:31;13.30;99.90
52731;DHT22;38624;53.242;6.974;2022-09-09T02:41:57;13.30;99.90
52731;DHT22;38624;53.242;6.974;2022-09-09T02:44:22;13.30;99.90
52731;DHT22;38624;53.242;6.974;2022-09-09T02:50:06;13.20;99.90
52731;DHT22;38624;53.242;6.974;2022-09-09T02:52:47;13.30;99.90
52731;DHT22;38624;53.242;6.974;2022-09-09T02:58:05;13.20;99.90
52731;DHT22;38624;53.242;6.974;2022-09-09T03:00:33;13.30;99.90
52731;DHT22;38624;53.242;6.974;2022-09-09T03:03:03;13.30;99.90
52731;DHT22;38624;53.242;6.974;2022-09-09T03:05:29;13.30;99.90
52731;DHT22;38624;53.242;6.974;2022-09-09T03:07:55;13.30;99.90
52731;DHT22;38624;53.242;6.974;2022-09-09T03:10:20;13.30;99.90
52731;DHT22;38624;53.242;6.974;2022-09-09T03:12:46;13.40;99.90
52731;DHT22;38624;53.242;6.974;2022-09-09T03:15:12;13.40;99.90
52731;DHT22;38624;53.242;6.974;2022-09-09T03:17:37;13.40;99.90
52731;DHT22;38624;53.242;6.974;2022-09-09T03:20:03;13.50;99.90
52731;DHT22;38624;53.242;6.974;2022-09-09T03:22:29;13.50;99.90
52731;DHT22;38624;53.242;6.974;2022-09-09T03:24:55;13.60;99.90
52731;DHT22;38624;53.242;6.974;2022-09-09T03:27:21;13.70;99.90
52731;DHT22;38624;53.242;6.974;2022-09-09T03:29:46;13.70;99.90
52731;DHT22;38624;53.242;6.974;2022-09-09T03:32:12;13.80;99.90
52731;DHT22;38624;53.242;6.974;2022-09-09T03:34:38;13.90;99.90
52731;DHT22;38624;53.242;6.974;2022-09-09T03:37:06;13.90;99.90
52731;DHT22;38624;53.242;6.974;2022-09-09T03:39:32;14.00;99.90
52731;DHT22;38624;53.242;6.974;2022-09-09T03:41:58;14.00;99.90
52731;DHT22;38624;53.242;6.974;2022-09-09T03:44:24;14.10;99.90
52731;DHT22;38624;53.242;6.974;2022-09-09T03:46:49;14.20;99.90
52731;DHT22;38624;53.242;6.974;2022-09-09T03:49:15;14.20;99.90
52731;DHT22;38624;53.242;6.974;2022-09-09T03:51:42;14.20;99.90
52731;DHT22;38624;53.242;6.974;2022-09-09T03:54:07;14.20;99.90
52731;DHT22;38624;53.242;6.974;2022-09-09T03:56:36;14.30;99.90
52731;DHT22;38624;53.242;6.974;2022-09-09T03:59:02;14.30;99.90
52731;DHT22;38624;53.242;6.974;2022-09-09T04:01:28;14.30;99.90
52731;DHT22;38624;53.242;6.974;2022-09-09T04:03:54;14.30;99.90
52731;DHT22;38624;53.242;6.974;2022-09-09T04:06:24;14.30;99.90
52731;DHT22;38624;53.242;6.974;2022-09-09T04:08:50;14.40;99.90
52731;DHT22;38624;53.242;6.974;2022-09-09T04:11:17;14.40;99.90
52731;DHT22;38624;53.242;6.974;2022-09-09T04:13:43;14.40;99.90
52731;DHT22;38624;53.242;6.974;2022-09-09T04:16:11;14.40;99.90
52731;DHT22;38624;53.242;6.974;2022-09-09T04:18:38;14.40;99.90
52731;DHT22;38624;53.242;6.974;2022-09-09T04:21:04;14.50;99.90
52731;DHT22;38624;53.242;6.974;2022-09-09T04:23:32;14.40;99.90
52731;DHT22;38624;53.242;6.974;2022-09-09T04:25:59;14.40;99.90
52731;DHT22;38624;53.242;6.974;2022-09-09T04:28:28;14.40;99.90
52731;DHT22;38624;53.242;6.974;2022-09-09T04:30:54;14.40;99.90
52731;DHT22;38624;53.242;6.974;2022-09-09T04:33:20;14.40;99.90
52731;DHT22;38624;53.242;6.974;2022-09-09T04:35:47;14.40;99.90
52731;DHT22;38624;53.242;6.974;2022-09-09T04:38:14;14.40;99.90
52731;DHT22;38624;53.242;6.974;2022-09-09T04:40:47;14.40;99.90
52731;DHT22;38624;53.242;6.974;2022-09-09T04:43:13;14.40;99.90
52731;DHT22;38624;53.242;6.974;2022-09-09T04:45:40;14.40;99.90
52731;DHT22;38624;53.242;6.974;2022-09-09T04:48:06;14.40;99.90
52731;DHT22;38624;53.242;6.974;2022-09-09T04:50:32;14.40;99.90
52731;DHT22;38624;53.242;6.974;2022-09-09T04:53:02;14.40;99.90
52731;DHT22;38624;53.242;6.974;2022-09-09T04:55:29;14.40;99.90
52731;DHT22;38624;53.242;6.974;2022-09-09T04:57:55;14.30;99.90
52731;DHT22;38624;53.242;6.974;2022-09-09T05:00:22;14.30;99.90
52731;DHT22;38624;53.242;6.974;2022-09-09T05:02:47;14.30;99.90
52731;DHT22;38624;53.242;6.974;2022-09-09T05:05:13;14.30;99.90
52731;DHT22;38624;53.242;6.974;2022-09-09T05:07:39;14.30;99.90
52731;DHT22;38624;53.242;6.974;2022-09-09T05:10:04;14.30;99.90
52731;DHT22;38624;53.242;6.974;2022-09-09T05:12:31;14.30;99.90
52731;DHT22;38624;53.242;6.974;2022-09-09T05:14:57;14.40;99.90
52731;DHT22;38624;53.242;6.974;2022-09-09T05:17:23;14.40;99.90
52731;DHT22;38624;53.242;6.974;2022-09-09T05:19:49;14.40;99.90
52731;DHT22;38624;53.242;6.974;2022-09-09T05:22:23;14.40;99.90
52731;DHT22;38624;53.242;6.974;2022-09-09T05:24:49;14.40;99.90
52731;DHT22;38624;53.242;6.974;2022-09-09T05:27:18;14.40;99.90
52731;DHT22;38624;53.242;6.974;2022-09-09T05:29:45;14.40;99.90
52731;DHT22;38624;53.242;6.974;2022-09-09T05:32:11;14.40;99.90
52731;DHT22;38624;53.242;6.974;2022-09-09T05:34:39;14.40;99.90
52731;DHT22;38624;53.242;6.974;2022-09-09T05:37:05;14.40;99.90
52731;DHT22;38624;53.242;6.974;2022-09-09T05:39:30;14.40;99.90
52731;DHT22;38624;53.242;6.974;2022-09-09T05:41:56;14.40;99.90
52731;DHT22;38624;53.242;6.974;2022-09-09T05:44:22;14.40;99.90
52731;DHT22;38624;53.242;6.974;2022-09-09T05:46:50;14.40;99.90
52731;DHT22;38624;53.242;6.974;2022-09-09T05:49:16;14.50;99.90
52731;DHT22;38624;53.242;6.974;2022-09-09T05:51:41;14.40;99.90
52731;DHT22;38624;53.242;6.974;2022-09-09T05:54:08;14.40;99.90
52731;DHT22;38624;53.242;6.974;2022-09-09T05:56:34;14.50;99.90
52731;DHT22;38624;53.242;6.974;2022-09-09T05:59:00;14.50;99.90
52731;DHT22;38624;53.242;6.974;2022-09-09T06:01:29;14.60;99.90
52731;DHT22;38624;53.242;6.974;2022-09-09T06:03:55;14.50;99.90
52731;DHT22;38624;53.242;6.974;2022-09-09T06:06:26;14.60;99.90
52731;DHT22;38624;53.242;6.974;2022-09-09T06:08:55;14.60;99.90
52731;DHT22;38624;53.242;6.974;2022-09-09T06:11:28;14.60;99.90
52731;DHT22;38624;53.242;6.974;2022-09-09T06:13:57;14.60;99.90
52731;DHT22;38624;53.242;6.974;2022-09-09T06:16:25;14.60;99.90
52731;DHT22;38624;53.242;6.974;2022-09-09T06:18:52;14.70;99.90
52731;DHT22;38624;53.242;6.974;2022-09-09T06:21:33;14.70;99.90
52731;DHT22;38624;53.242;6.974;2022-09-09T06:24:00;14.70;99.90
52731;DHT22;38624;53.242;6.974;2022-09-09T06:26:31;14.70;99.90
52731;DHT22;38624;53.242;6.974;2022-09-09T06:28:57;14.70;99.90
52731;DHT22;38624;53.242;6.974;2022-09-09T06:31:28;14.80;99.90
52731;DHT22;38624;53.242;6.974;2022-09-09T06:33:57;14.80;99.90
52731;DHT22;38624;53.242;6.974;2022-09-09T06:36:28;14.80;99.90
52731;DHT22;38624;53.242;6.974;2022-09-09T06:38:54;14.80;99.90
52731;DHT22;38624;53.242;6.974;2022-09-09T06:41:21;14.80;99.90
52731;DHT22;38624;53.242;6.974;2022-09-09T06:43:48;14.90;99.90
52731;DHT22;38624;53.242;6.974;2022-09-09T06:46:30;14.90;99.90
52731;DHT22;38624;53.242;6.974;2022-09-09T06:48:58;14.90;99.90
52731;DHT22;38624;53.242;6.974;2022-09-09T06:51:26;14.90;99.90
52731;DHT22;38624;53.242;6.974;2022-09-09T06:53:54;15.00;99.90
52731;DHT22;38624;53.242;6.974;2022-09-09T06:56:32;15.00;99.90
52731;DHT22;38624;53.242;6.974;2022-09-09T06:59:00;15.10;99.90
52731;DHT22;38624;53.242;6.974;2022-09-09T07:01:31;15.20;99.90
52731;DHT22;38624;53.242;6.974;2022-09-09T07:03:58;15.30;99.90
52731;DHT22;38624;53.242;6.974;2022-09-09T07:06:27;15.40;99.90
52731;DHT22;38624;53.242;6.974;2022-09-09T07:08:58;15.50;99.90
52731;DHT22;38624;53.242;6.974;2022-09-09T07:11:26;15.60;99.90
52731;DHT22;38624;53.242;6.974;2022-09-09T07:13:53;15.70;99.90
52731;DHT22;38624;53.242;6.974;2022-09-09T07:16:20;15.80;99.90
52731;DHT22;38624;53.242;6.974;2022-09-09T07:18:46;16.00;99.90
52731;DHT22;38624;53.242;6.974;2022-09-09T07:21:13;16.20;99.90
52731;DHT22;38624;53.242;6.974;2022-09-09T07:23:40;16.30;99.90
52731;DHT22;38624;53.242;6.974;2022-09-09T07:26:32;16.50;99.90
52731;DHT22;38624;53.242;6.974;2022-09-09T07:28:58;16.60;99.90
52731;DHT22;38624;53.242;6.974;2022-09-09T07:31:26;16.70;99.90
52731;DHT22;38624;53.242;6.974;2022-09-09T07:33:53;16.80;99.90
52731;DHT22;38624;53.242;6.974;2022-09-09T07:36:22;16.80;99.90
52731;DHT22;38624;53.242;6.974;2022-09-09T07:38:50;16.90;99.90
52731;DHT22;38624;53.242;6.974;2022-09-09T07:41:22;17.00;99.90
52731;DHT22;38624;53.242;6.974;2022-09-09T07:43:49;17.20;99.90
52731;DHT22;38624;53.242;6.974;2022-09-09T07:46:16;17.30;99.90
52731;DHT22;38624;53.242;6.974;2022-09-09T07:48:50;17.30;99.90
52731;DHT22;38624;53.242;6.974;2022-09-09T07:51:24;17.40;99.90
52731;DHT22;38624;53.242;6.974;2022-09-09T07:53:56;17.50;99.90
52731;DHT22;38624;53.242;6.974;2022-09-09T07:56:26;17.50;99.90
52731;DHT22;38624;53.242;6.974;2022-09-09T07:58:53;17.50;99.90
52731;DHT22;38624;53.242;6.974;2022-09-09T08:01:32;17.60;99.90
52731;DHT22;38624;53.242;6.974;2022-09-09T08:04:10;17.50;99.90
52731;DHT22;38624;53.242;6.974;2022-09-09T08:06:39;17.60;99.90
52731;DHT22;38624;53.242;6.974;2022-09-09T08:09:06;17.60;99.90
52731;DHT22;38624;53.242;6.974;2022-09-09T08:11:33;17.60;99.90
52731;DHT22;38624;53.242;6.974;2022-09-09T08:14:01;17.70;99.90
52731;DHT22;38624;53.242;6.974;2022-09-09T08:16:29;17.70;99.90
52731;DHT22;38624;53.242;6.974;2022-09-09T08:18:56;17.80;99.90
52731;DHT22;38624;53.242;6.974;2022-09-09T08:21:27;17.90;99.90
52731;DHT22;38624;53.242;6.974;2022-09-09T08:23:54;18.00;99.90
52731;DHT22;38624;53.242;6.974;2022-09-09T08:26:25;18.10;99.90
52731;DHT22;38624;53.242;6.974;2022-09-09T08:28:53;18.20;99.90
52731;DHT22;38624;53.242;6.974;2022-09-09T08:31:22;18.30;99.90
52731;DHT22;38624;53.242;6.974;2022-09-09T08:33:48;18.40;99.90
52731;DHT22;38624;53.242;6.974;2022-09-09T08:36:16;18.60;99.90
52731;DHT22;38624;53.242;6.974;2022-09-09T08:38:43;18.60;99.90
52731;DHT22;38624;53.242;6.974;2022-09-09T08:49:18;18.90;99.90
52731;DHT22;38624;53.242;6.974;2022-09-09T08:51:48;19.00;99.90
52731;DHT22;38624;53.242;6.974;2022-09-09T08:54:15;19.00;99.90
52731;DHT22;38624;53.242;6.974;2022-09-09T08:56:41;19.10;99.90
52731;DHT22;38624;53.242;6.974;2022-09-09T08:59:16;19.10;99.90
52731;DHT22;38624;53.242;6.974;2022-09-09T09:12:50;19.10;99.90
52731;DHT22;38624;53.242;6.974;2022-09-09T09:15:21;19.10;99.90
52731;DHT22;38624;53.242;6.974;2022-09-09T09:17:49;19.00;99.90
52731;DHT22;38624;53.242;6.974;2022-09-09T09:20:15;19.00;99.90
52731;DHT22;38624;53.242;6.974;2022-09-09T09:22:49;18.90;99.90
52731;DHT22;38624;53.242;6.974;2022-09-09T09:25:48;18.90;99.90
52731;DHT22;38624;53.242;6.974;2022-09-09T09:28:25;18.90;99.90
52731;DHT22;38624;53.242;6.974;2022-09-09T09:31:01;18.90;99.90
52731;DHT22;38624;53.242;6.974;2022-09-09T09:36:08;19.10;99.90
52731;DHT22;38624;53.242;6.974;2022-09-09T09:38:36;19.20;99.90
52731;DHT22;38624;53.242;6.974;2022-09-09T09:41:02;19.20;99.90
52731;DHT22;38624;53.242;6.974;2022-09-09T09:43:33;19.30;99.90
52731;DHT22;38624;53.242;6.974;2022-09-09T09:46:00;19.40;99.90
52731;DHT22;38624;53.242;6.974;2022-09-09T09:48:28;19.60;99.90
52731;DHT22;38624;53.242;6.974;2022-09-09T09:50:57;19.70;99.90
52731;DHT22;38624;53.242;6.974;2022-09-09T09:53:27;19.90;99.90
52731;DHT22;38624;53.242;6.974;2022-09-09T09:56:01;20.00;99.90
52731;DHT22;38624;53.242;6.974;2022-09-09T09:58:31;20.00;99.90
52731;DHT22;38624;53.242;6.974;2022-09-09T10:01:00;20.00;99.90
52731;DHT22;38624;53.242;6.974;2022-09-09T10:03:31;20.00;99.90
52731;DHT22;38624;53.242;6.974;2022-09-09T10:05:58;20.10;99.90
52731;DHT22;38624;53.242;6.974;2022-09-09T10:08:25;20.20;99.90
52731;DHT22;38624;53.242;6.974;2022-09-09T10:18:58;20.20;99.90
52731;DHT22;38624;53.242;6.974;2022-09-09T10:27:38;20.70;99.90
52731;DHT22;38624;53.242;6.974;2022-09-09T10:33:19;21.00;99.90
52731;DHT22;38624;53.242;6.974;2022-09-09T10:38:45;21.30;99.90
52731;DHT22;38624;53.242;6.974;2022-09-09T10:41:19;21.30;99.90
52731;DHT22;38624;53.242;6.974;2022-09-09T10:44:12;21.40;99.90
52731;DHT22;38624;53.242;6.974;2022-09-09T10:51:48;21.90;99.90
52731;DHT22;38624;53.242;6.974;2022-09-09T10:54:45;21.90;99.90
52731;DHT22;38624;53.242;6.974;2022-09-09T10:59:59;22.40;99.90
52731;DHT22;38624;53.242;6.974;2022-09-09T11:02:28;22.60;99.90
52731;DHT22;38624;53.242;6.974;2022-09-09T11:05:10;22.70;99.90
52731;DHT22;38624;53.242;6.974;2022-09-09T11:07:48;22.90;99.90
52731;DHT22;38624;53.242;6.974;2022-09-09T11:10:26;23.10;99.90
52731;DHT22;38624;53.242;6.974;2022-09-09T11:13:01;23.00;99.90
52731;DHT22;38624;53.242;6.974;2022-09-09T11:15:50;23.10;99.90
52731;DHT22;38624;53.242;6.974;2022-09-09T11:18:23;23.10;99.90
52731;DHT22;38624;53.242;6.974;2022-09-09T11:20:52;23.40;99.90
52731;DHT22;38624;53.242;6.974;2022-09-09T11:23:27;23.60;99.90
52731;DHT22;38624;53.242;6.974;2022-09-09T11:26:00;23.70;99.90
52731;DHT22;38624;53.242;6.974;2022-09-09T11:31:46;23.60;99.90
52731;DHT22;38624;53.242;6.974;2022-09-09T11:37:44;24.30;99.90
52731;DHT22;38624;53.242;6.974;2022-09-09T11:40:24;24.80;99.90
52731;DHT22;38624;53.242;6.974;2022-09-09T11:45:28;25.30;99.90
52731;DHT22;38624;53.242;6.974;2022-09-09T11:47:58;25.60;99.90
52731;DHT22;38624;53.242;6.974;2022-09-09T11:52:50;25.20;99.90
52731;DHT22;38624;53.242;6.974;2022-09-09T11:55:31;24.90;99.90
52731;DHT22;38624;53.242;6.974;2022-09-09T12:00:41;24.80;99.90
52731;DHT22;38624;53.242;6.974;2022-09-09T12:05:54;25.60;99.90
52731;DHT22;38624;53.242;6.974;2022-09-09T12:08:27;26.20;99.90
52731;DHT22;38624;53.242;6.974;2022-09-09T12:10:58;25.80;99.90
52731;DHT22;38624;53.242;6.974;2022-09-09T12:13:26;25.30;99.90
52731;DHT22;38624;53.242;6.974;2022-09-09T12:16:00;25.00;99.90
52731;DHT22;38624;53.242;6.974;2022-09-09T12:18:38;24.60;99.90
52731;DHT22;38624;53.242;6.974;2022-09-09T12:23:45;24.90;99.90
52731;DHT22;38624;53.242;6.974;2022-09-09T12:31:54;27.00;96.30
52731;DHT22;38624;53.242;6.974;2022-09-09T12:34:41;26.30;98.40
52731;DHT22;38624;53.242;6.974;2022-09-09T12:39:58;25.90;99.90
52731;DHT22;38624;53.242;6.974;2022-09-09T12:42:25;27.50;99.90
52731;DHT22;38624;53.242;6.974;2022-09-09T12:44:59;28.10;99.00
52731;DHT22;38624;53.242;6.974;2022-09-09T12:50:00;26.60;98.20
52731;DHT22;38624;53.242;6.974;2022-09-09T12:54:52;25.40;99.90
52731;DHT22;38624;53.242;6.974;2022-09-09T12:57:21;25.10;99.90
52731;DHT22;38624;53.242;6.974;2022-09-09T12:59:48;25.20;99.90
52731;DHT22;38624;53.242;6.974;2022-09-09T13:02:25;25.70;99.90
52731;DHT22;38624;53.242;6.974;2022-09-09T13:04:51;25.80;99.90
52731;DHT22;38624;53.242;6.974;2022-09-09T13:07:19;26.00;99.90
52731;DHT22;38624;53.242;6.974;2022-09-09T13:09:46;26.20;99.90
52731;DHT22;38624;53.242;6.974;2022-09-09T13:12:18;26.00;99.90
52731;DHT22;38624;53.242;6.974;2022-09-09T13:14:47;25.80;99.90
52731;DHT22;38624;53.242;6.974;2022-09-09T13:17:40;25.60;99.90
52731;DHT22;38624;53.242;6.974;2022-09-09T13:20:14;25.50;99.90
52731;DHT22;38624;53.242;6.974;2022-09-09T13:22:41;25.30;99.90
52731;DHT22;38624;53.242;6.974;2022-09-09T13:27:54;28.60;96.70
52731;DHT22;38624;53.242;6.974;2022-09-09T13:30:32;29.90;92.40
52731;DHT22;38624;53.242;6.974;2022-09-09T13:35:44;31.80;84.90
52731;DHT22;38624;53.242;6.974;2022-09-09T13:38:14;30.90;80.80
52731;DHT22;38624;53.242;6.974;2022-09-09T13:40:40;31.70;78.50
52731;DHT22;38624;53.242;6.974;2022-09-09T13:43:19;32.60;77.70
52731;DHT22;38624;53.242;6.974;2022-09-09T13:45:53;32.40;77.20
52731;DHT22;38624;53.242;6.974;2022-09-09T13:48:19;33.70;74.30
52731;DHT22;38624;53.242;6.974;2022-09-09T13:50:55;33.50;72.90
52731;DHT22;38624;53.242;6.974;2022-09-09T13:53:20;32.20;71.40
52731;DHT22;38624;53.242;6.974;2022-09-09T13:55:46;32.30;72.00
52731;DHT22;38624;53.242;6.974;2022-09-09T13:58:16;31.80;72.10
52731;DHT22;38624;53.242;6.974;2022-09-09T14:00:44;32.30;72.40
52731;DHT22;38624;53.242;6.974;2022-09-09T14:03:10;33.60;71.50
52731;DHT22;38624;53.242;6.974;2022-09-09T14:05:36;32.70;70.60
52731;DHT22;38624;53.242;6.974;2022-09-09T14:08:04;31.40;71.20
52731;DHT22;38624;53.242;6.974;2022-09-09T14:10:30;30.20;73.30
52731;DHT22;38624;53.242;6.974;2022-09-09T14:12:56;29.30;75.20
52731;DHT22;38624;53.242;6.974;2022-09-09T14:15:22;28.60;76.40
52731;DHT22;38624;53.242;6.974;2022-09-09T14:17:48;28.00;77.10
52731;DHT22;38624;53.242;6.974;2022-09-09T14:20:14;27.40;78.70
52731;DHT22;38624;53.242;6.974;2022-09-09T14:22:41;26.90;80.90
52731;DHT22;38624;53.242;6.974;2022-09-09T14:25:07;26.40;82.50
52731;DHT22;38624;53.242;6.974;2022-09-09T14:27:33;26.10;84.70
52731;DHT22;38624;53.242;6.974;2022-09-09T14:29:59;25.80;86.20
52731;DHT22;38624;53.242;6.974;2022-09-09T14:32:26;25.50;88.80
52731;DHT22;38624;53.242;6.974;2022-09-09T14:34:52;25.20;90.40
52731;DHT22;38624;53.242;6.974;2022-09-09T14:37:18;25.00;90.90
52731;DHT22;38624;53.242;6.974;2022-09-09T14:39:44;24.70;91.30
52731;DHT22;38624;53.242;6.974;2022-09-09T14:42:10;24.50;92.50
52731;DHT22;38624;53.242;6.974;2022-09-09T14:44:37;24.40;93.30
52731;DHT22;38624;53.242;6.974;2022-09-09T14:47:07;24.20;94.60
52731;DHT22;38624;53.242;6.974;2022-09-09T14:49:34;24.00;96.50
52731;DHT22;38624;53.242;6.974;2022-09-09T14:52:00;23.70;99.90
52731;DHT22;38624;53.242;6.974;2022-09-09T14:54:26;23.50;99.90
52731;DHT22;38624;53.242;6.974;2022-09-09T14:56:51;23.30;99.90
52731;DHT22;38624;53.242;6.974;2022-09-09T14:59:17;23.10;99.90
52731;DHT22;38624;53.242;6.974;2022-09-09T15:01:43;22.90;99.90
52731;DHT22;38624;53.242;6.974;2022-09-09T15:04:11;22.70;99.90
52731;DHT22;38624;53.242;6.974;2022-09-09T15:06:37;22.50;99.90
52731;DHT22;38624;53.242;6.974;2022-09-09T15:09:05;22.40;99.90
52731;DHT22;38624;53.242;6.974;2022-09-09T15:11:34;22.10;99.90
52731;DHT22;38624;53.242;6.974;2022-09-09T15:14:03;21.90;99.90
52731;DHT22;38624;53.242;6.974;2022-09-09T15:16:29;21.70;99.90
52731;DHT22;38624;53.242;6.974;2022-09-09T15:18:58;21.50;99.90
52731;DHT22;38624;53.242;6.974;2022-09-09T15:21:29;21.40;99.90
52731;DHT22;38624;53.242;6.974;2022-09-09T15:23:56;21.20;99.90
52731;DHT22;38624;53.242;6.974;2022-09-09T15:26:22;21.10;99.90
52731;DHT22;38624;53.242;6.974;2022-09-09T15:28:48;21.00;99.90
52731;DHT22;38624;53.242;6.974;2022-09-09T15:31:18;20.90;99.90
52731;DHT22;38624;53.242;6.974;2022-09-09T15:33:55;20.90;99.90
52731;DHT22;38624;53.242;6.974;2022-09-09T15:36:28;21.00;99.90
52731;DHT22;38624;53.242;6.974;2022-09-09T15:38:54;21.10;99.90
52731;DHT22;38624;53.242;6.974;2022-09-09T15:41:21;21.40;99.90
52731;DHT22;38624;53.242;6.974;2022-09-09T15:43:50;21.70;99.90
52731;DHT22;38624;53.242;6.974;2022-09-09T15:48:43;22.60;99.90
52731;DHT22;38624;53.242;6.974;2022-09-09T15:51:10;22.40;99.90
52731;DHT22;38624;53.242;6.974;2022-09-09T15:53:37;22.30;99.90
52731;DHT22;38624;53.242;6.974;2022-09-09T15:56:08;22.10;99.90
52731;DHT22;38624;53.242;6.974;2022-09-09T15:58:34;21.90;99.90
52731;DHT22;38624;53.242;6.974;2022-09-09T16:01:10;21.70;99.90
52731;DHT22;38624;53.242;6.974;2022-09-09T16:03:41;21.60;99.90
52731;DHT22;38624;53.242;6.974;2022-09-09T16:06:13;21.50;99.90
52731;DHT22;38624;53.242;6.974;2022-09-09T16:08:41;21.40;99.90
52731;DHT22;38624;53.242;6.974;2022-09-09T16:11:14;21.80;99.90
52731;DHT22;38624;53.242;6.974;2022-09-09T16:13:42;21.80;99.90
52731;DHT22;38624;53.242;6.974;2022-09-09T16:16:10;21.80;99.90
52731;DHT22;38624;53.242;6.974;2022-09-09T16:18:44;21.90;99.90
52731;DHT22;38624;53.242;6.974;2022-09-09T16:21:19;22.00;99.90
52731;DHT22;38624;53.242;6.974;2022-09-09T16:23:45;22.00;99.90
52731;DHT22;38624;53.242;6.974;2022-09-09T16:26:13;22.00;99.90
52731;DHT22;38624;53.242;6.974;2022-09-09T16:28:39;22.00;99.90
52731;DHT22;38624;53.242;6.974;2022-09-09T16:31:19;22.00;99.90
52731;DHT22;38624;53.242;6.974;2022-09-09T16:33:45;22.00;99.90
52731;DHT22;38624;53.242;6.974;2022-09-09T16:36:17;21.90;99.90
52731;DHT22;38624;53.242;6.974;2022-09-09T16:38:43;21.80;99.90
52731;DHT22;38624;53.242;6.974;2022-09-09T16:41:10;21.60;99.90
52731;DHT22;38624;53.242;6.974;2022-09-09T16:43:37;21.60;99.90
52731;DHT22;38624;53.242;6.974;2022-09-09T16:46:10;21.50;99.90
52731;DHT22;38624;53.242;6.974;2022-09-09T16:48:36;21.30;99.90
52731;DHT22;38624;53.242;6.974;2022-09-09T16:51:07;21.30;99.90
52731;DHT22;38624;53.242;6.974;2022-09-09T16:53:33;21.30;99.90
52731;DHT22;38624;53.242;6.974;2022-09-09T16:56:06;21.20;99.90
52731;DHT22;38624;53.242;6.974;2022-09-09T16:58:32;21.00;99.90
52731;DHT22;38624;53.242;6.974;2022-09-09T17:00:58;20.90;99.90
52731;DHT22;38624;53.242;6.974;2022-09-09T17:03:24;20.70;99.90
52731;DHT22;38624;53.242;6.974;2022-09-09T17:05:50;20.50;99.90
52731;DHT22;38624;53.242;6.974;2022-09-09T17:08:16;20.30;99.90
52731;DHT22;38624;53.242;6.974;2022-09-09T17:10:42;20.10;99.90
52731;DHT22;38624;53.242;6.974;2022-09-09T17:13:08;20.00;99.90
52731;DHT22;38624;53.242;6.974;2022-09-09T17:15:39;19.90;99.90
52731;DHT22;38624;53.242;6.974;2022-09-09T17:18:08;19.70;99.90
52731;DHT22;38624;53.242;6.974;2022-09-09T17:20:39;19.60;99.90
52731;DHT22;38624;53.242;6.974;2022-09-09T17:23:09;19.50;99.90
52731;DHT22;38624;53.242;6.974;2022-09-09T17:25:35;19.40;99.90
52731;DHT22;38624;53.242;6.974;2022-09-09T17:28:02;19.30;99.90
52731;DHT22;38624;53.242;6.974;2022-09-09T17:30:35;19.20;99.90
52731;DHT22;38624;53.242;6.974;2022-09-09T17:33:03;19.20;99.90
52731;DHT22;38624;53.242;6.974;2022-09-09T17:35:30;19.00;99.90
52731;DHT22;38624;53.242;6.974;2022-09-09T17:37:56;19.00;99.90
52731;DHT22;38624;53.242;6.974;2022-09-09T17:40:22;18.90;99.90
52731;DHT22;38624;53.242;6.974;2022-09-09T17:42:47;18.90;99.90
52731;DHT22;38624;53.242;6.974;2022-09-09T17:45:14;18.80;99.90
52731;DHT22;38624;53.242;6.974;2022-09-09T17:47:40;18.70;99.90
52731;DHT22;38624;53.242;6.974;2022-09-09T17:50:08;18.70;99.90
52731;DHT22;38624;53.242;6.974;2022-09-09T17:52:35;18.60;99.90
52731;DHT22;38624;53.242;6.974;2022-09-09T17:55:03;18.50;99.90
52731;DHT22;38624;53.242;6.974;2022-09-09T17:57:29;18.50;99.90
52731;DHT22;38624;53.242;6.974;2022-09-09T17:59:55;18.40;99.90
52731;DHT22;38624;53.242;6.974;2022-09-09T18:02:21;18.40;99.90
52731;DHT22;38624;53.242;6.974;2022-09-09T18:04:46;18.30;99.90
52731;DHT22;38624;53.242;6.974;2022-09-09T18:07:12;18.30;99.90